createdAt,value
2019-03-22T00:02:05.705Z,12.100000
2019-03-22T00:04:35.972Z,13.400000
2019-03-22T00:07:06.289Z,13.400000
2019-03-22T00:09:36.725Z,14.600000
2019-03-22T00:12:07.045Z,14.600000
2019-03-22T00:14:37.419Z,14.500000
2019-03-22T00:17:07.815Z,14.500000
2019-03-22T00:19:38.135Z,16.900000
2019-03-22T00:22:08.581Z,16.900000
2019-03-22T00:24:38.882Z,16.800000
2019-03-22T00:27:16.409Z,16.800000
2019-03-22T00:29:47.363Z,17.500000
2019-03-22T00:32:17.783Z,17.500000
2019-03-22T00:34:48.133Z,16.400000
2019-03-22T00:37:18.480Z,16.400000
2019-03-22T00:39:48.840Z,17.600000
2019-03-22T00:42:19.275Z,17.600000
2019-03-22T00:44:49.565Z,18.800000
2019-03-22T00:47:19.789Z,18.800000
2019-03-22T00:49:50.140Z,14.700000
2019-03-22T00:52:20.467Z,14.700000
2019-03-22T00:54:50.840Z,13.900000
2019-03-22T00:57:28.375Z,13.900000
2019-03-22T00:59:59.317Z,16.200000
2019-03-22T01:02:29.540Z,16.200000
2019-03-22T01:04:59.830Z,13.900000
2019-03-22T01:07:30.155Z,13.900000
2019-03-22T01:10:00.665Z,11.500000
2019-03-22T01:12:30.994Z,11.500000
2019-03-22T01:15:01.273Z,18.400000
2019-03-22T01:17:31.731Z,18.400000
2019-03-22T01:20:02.088Z,14.200000
2019-03-22T01:22:32.542Z,14.200000
2019-03-22T01:25:02.813Z,13.400000
2019-03-22T01:27:40.514Z,13.400000
2019-03-22T01:30:11.531Z,13.200000
2019-03-22T01:32:41.802Z,13.200000
2019-03-22T01:35:12.105Z,18.700000
2019-03-22T01:37:42.415Z,18.700000
2019-03-22T01:40:12.619Z,20.800000
2019-03-22T01:42:43.014Z,20.800000
2019-03-22T01:45:13.333Z,18.100000
2019-03-22T01:47:43.842Z,18.100000
2019-03-22T01:50:14.164Z,18.500000
2019-03-22T01:52:44.553Z,18.500000
2019-03-22T01:55:14.912Z,14.600000
2019-03-22T01:57:52.954Z,14.600000
2019-03-22T02:00:24.123Z,17.600000
2019-03-22T02:02:54.445Z,17.600000
2019-03-22T02:05:24.763Z,19.900000
2019-03-22T02:07:55.084Z,19.900000
2019-03-22T02:10:25.413Z,19.600000
2019-03-22T02:12:55.760Z,19.600000
2019-03-22T02:15:26.181Z,20.400000
2019-03-22T02:17:56.673Z,20.400000
2019-03-22T02:20:27.082Z,21.400000
2019-03-22T02:22:57.389Z,21.400000
2019-03-22T02:25:27.607Z,22.500000
2019-03-22T02:28:04.036Z,22.500000
2019-03-22T02:30:34.807Z,21.700000
2019-03-22T02:33:05.225Z,21.700000
2019-03-22T02:35:35.659Z,22.800000
2019-03-22T02:38:06.037Z,22.800000
2019-03-22T02:40:36.349Z,20.900000
2019-03-22T02:43:06.785Z,20.900000
2019-03-22T02:45:37.119Z,23.100000
2019-03-22T02:48:07.642Z,23.100000
2019-03-22T02:50:37.929Z,17.600000
2019-03-22T02:53:08.263Z,23.200000
2019-03-22T02:55:38.665Z,23.200000
2019-03-22T02:58:20.747Z,25.500000
2019-03-22T03:00:51.720Z,25.500000
2019-03-22T03:03:22.206Z,25.300000
2019-03-22T03:05:57.610Z,25.300000
2019-03-22T03:08:32.997Z,24.100000
2019-03-22T03:11:03.342Z,24.100000
2019-03-22T03:13:38.766Z,26.500000
2019-03-22T03:16:14.206Z,26.500000
2019-03-22T03:18:44.518Z,23.800000
2019-03-22T03:21:14.951Z,23.800000
2019-03-22T03:23:45.170Z,25.800000
2019-03-22T03:26:15.540Z,25.800000
2019-03-22T03:28:45.946Z,25.400000
2019-03-22T03:31:16.285Z,25.400000
2019-03-22T03:33:46.499Z,23.300000
2019-03-22T03:36:16.814Z,23.300000
2019-03-22T03:38:47.305Z,27.800000
2019-03-22T03:41:17.653Z,27.800000
2019-03-22T03:43:48.072Z,26.300000
2019-03-22T03:46:18.475Z,26.300000
2019-03-22T03:48:48.892Z,25.300000
2019-03-22T03:51:19.244Z,25.300000
2019-03-22T03:53:49.549Z,25.000000
2019-03-22T03:56:19.960Z,25.000000
2019-03-22T03:58:52.810Z,21.600000
2019-03-22T04:01:23.539Z,21.600000
2019-03-22T04:03:53.834Z,21.900000
2019-03-22T04:06:24.216Z,21.900000
2019-03-22T04:08:54.632Z,25.300000
2019-03-22T04:11:24.942Z,25.300000
2019-03-22T04:13:55.249Z,21.100000
2019-03-22T04:16:25.500Z,21.100000
2019-03-22T04:18:55.796Z,26.700000
2019-03-22T04:21:26.107Z,26.700000
2019-03-22T04:23:56.432Z,25.100000
2019-03-22T04:26:26.774Z,25.100000
2019-03-22T04:29:07.107Z,26.700000
2019-03-22T04:31:38.603Z,26.700000
2019-03-22T04:34:08.968Z,27.900000
2019-03-22T04:36:39.391Z,27.900000
2019-03-22T04:39:09.708Z,28.700000
2019-03-22T04:41:39.910Z,28.700000
2019-03-22T04:44:10.279Z,27.600000
2019-03-22T04:46:40.642Z,27.600000
2019-03-22T04:49:10.973Z,27.100000
2019-03-22T04:51:41.434Z,27.100000
2019-03-22T04:54:11.759Z,28.700000
2019-03-22T04:56:42.067Z,28.700000
2019-03-22T04:59:19.109Z,25.500000
2019-03-22T05:01:49.838Z,25.500000
2019-03-22T05:04:20.157Z,29.500000
2019-03-22T05:06:50.548Z,29.500000
2019-03-22T05:09:20.866Z,27.000000
2019-03-22T05:11:51.275Z,27.000000
2019-03-22T05:14:21.579Z,28.200000
2019-03-22T05:16:52.093Z,28.200000
2019-03-22T05:19:22.376Z,25.600000
2019-03-22T05:21:57.697Z,25.600000
2019-03-22T05:24:27.960Z,28.100000
2019-03-22T05:26:58.255Z,28.100000
2019-03-22T05:29:30.951Z,26.600000
2019-03-22T05:32:01.448Z,26.600000
2019-03-22T05:34:31.768Z,27.700000
2019-03-22T05:37:02.172Z,27.700000
2019-03-22T05:39:32.478Z,26.600000
2019-03-22T05:42:02.777Z,26.600000
2019-03-22T05:44:33.091Z,27.300000
2019-03-22T05:47:03.400Z,27.300000
2019-03-22T05:49:33.822Z,27.900000
2019-03-22T05:52:04.151Z,27.900000
2019-03-22T05:54:34.549Z,28.500000
2019-03-22T05:57:13.171Z,28.500000
2019-03-22T05:59:44.261Z,27.400000
2019-03-22T06:02:14.595Z,29.100000
2019-03-22T06:04:45.038Z,29.100000
2019-03-22T06:07:15.320Z,30.400000
2019-03-22T06:09:45.739Z,30.400000
2019-03-22T06:12:16.048Z,29.200000
2019-03-22T06:14:46.358Z,29.200000
2019-03-22T06:17:16.578Z,29.200000
2019-03-22T06:19:46.907Z,29.200000
2019-03-22T06:22:17.336Z,30.500000
2019-03-22T06:24:47.659Z,30.500000
2019-03-22T06:27:18.083Z,30.800000
2019-03-22T06:29:54.239Z,30.800000
2019-03-22T06:32:25.062Z,26.400000
2019-03-22T06:34:55.369Z,26.400000
2019-03-22T06:37:25.674Z,28.200000
2019-03-22T06:39:55.989Z,28.200000
2019-03-22T06:42:26.301Z,28.900000
2019-03-22T06:44:56.613Z,28.900000
2019-03-22T06:47:27.054Z,29.800000
2019-03-22T06:49:57.569Z,29.800000
2019-03-22T06:52:27.801Z,26.800000
2019-03-22T06:54:58.204Z,26.800000
2019-03-22T06:57:28.545Z,27.600000
2019-03-22T07:00:06.351Z,27.600000
2019-03-22T07:02:37.651Z,26.500000
2019-03-22T07:05:07.876Z,26.500000
2019-03-22T07:07:38.124Z,26.900000
2019-03-22T07:10:08.469Z,26.900000
2019-03-22T07:12:38.849Z,27.500000
2019-03-22T07:15:09.229Z,27.500000
2019-03-22T07:17:39.548Z,24.500000
2019-03-22T07:20:09.931Z,24.500000
2019-03-22T07:22:40.322Z,27.800000
2019-03-22T07:25:10.659Z,27.800000
2019-03-22T07:27:41.010Z,26.100000
2019-03-22T07:30:18.575Z,26.100000
2019-03-22T07:32:49.182Z,28.100000
2019-03-22T07:35:19.662Z,28.100000
2019-03-22T07:37:49.986Z,28.000000
2019-03-22T07:40:20.325Z,28.000000
2019-03-22T07:42:50.676Z,28.000000
2019-03-22T07:45:21.097Z,28.000000
2019-03-22T07:47:51.441Z,28.000000
2019-03-22T07:50:21.785Z,28.000000
2019-03-22T07:52:52.165Z,27.400000
2019-03-22T07:55:22.577Z,27.400000
2019-03-22T07:57:52.927Z,27.600000
2019-03-22T08:00:30.652Z,27.600000
2019-03-22T08:03:01.802Z,26.700000
2019-03-22T08:05:32.158Z,26.700000
2019-03-22T08:08:02.521Z,25.400000
2019-03-22T08:10:33.045Z,25.400000
2019-03-22T08:13:03.405Z,24.900000
2019-03-22T08:15:33.753Z,24.900000
2019-03-22T08:18:04.127Z,25.900000
2019-03-22T08:20:34.586Z,25.900000
2019-03-22T08:23:04.947Z,29.600000
2019-03-22T08:25:35.196Z,29.600000
2019-03-22T08:28:05.571Z,26.300000
2019-03-22T08:30:43.003Z,26.300000
2019-03-22T08:33:13.828Z,26.400000
2019-03-22T08:35:44.182Z,26.400000
2019-03-22T08:38:17.356Z,27.800000
2019-03-22T08:40:48.005Z,27.800000
2019-03-22T08:43:18.387Z,26.600000
2019-03-22T08:45:48.766Z,26.600000
2019-03-22T08:48:19.162Z,25.600000
2019-03-22T08:50:49.543Z,25.600000
2019-03-22T08:53:19.927Z,26.000000
2019-03-22T08:55:50.223Z,26.000000
2019-03-22T08:58:20.652Z,23.500000
2019-03-22T09:00:57.298Z,23.500000
2019-03-22T09:03:28.375Z,26.400000
2019-03-22T09:05:58.807Z,26.400000
2019-03-22T09:08:29.242Z,24.000000
2019-03-22T09:10:59.650Z,24.000000
2019-03-22T09:13:30.071Z,26.200000
2019-03-22T09:16:05.439Z,26.200000
2019-03-22T09:18:35.733Z,28.100000
2019-03-22T09:21:06.038Z,28.100000
2019-03-22T09:23:36.334Z,29.500000
2019-03-22T09:26:06.771Z,29.500000
2019-03-22T09:28:37.101Z,26.300000
2019-03-22T09:31:10.489Z,26.300000
2019-03-22T09:33:41.189Z,27.900000
2019-03-22T09:36:11.501Z,27.900000
2019-03-22T09:38:42.025Z,31.300000
2019-03-22T09:41:12.445Z,31.300000
2019-03-22T09:43:42.782Z,30.000000
2019-03-22T09:46:13.318Z,30.000000
2019-03-22T09:48:43.741Z,32.100000
2019-03-22T09:51:14.090Z,32.100000
2019-03-22T09:53:44.521Z,30.000000
2019-03-22T09:56:14.853Z,27.300000
2019-03-22T09:58:45.205Z,27.300000
2019-03-22T10:01:23.473Z,31.500000
2019-03-22T10:03:54.601Z,31.500000
2019-03-22T10:06:24.956Z,30.400000
2019-03-22T10:08:55.344Z,30.400000
2019-03-22T10:11:25.737Z,30.200000
2019-03-22T10:13:56.234Z,30.200000
2019-03-22T10:16:26.603Z,29.000000
2019-03-22T10:18:56.991Z,29.000000
2019-03-22T10:21:27.561Z,30.400000
2019-03-22T10:23:57.935Z,30.400000
2019-03-22T10:26:28.177Z,31.000000
2019-03-22T10:28:58.397Z,31.000000
2019-03-22T10:31:37.160Z,34.100000
2019-03-22T10:34:08.083Z,34.100000
2019-03-22T10:36:38.471Z,31.000000
2019-03-22T10:39:08.830Z,31.000000
2019-03-22T10:41:39.272Z,33.100000
2019-03-22T10:44:09.847Z,33.100000
2019-03-22T10:46:40.222Z,30.700000
2019-03-22T10:49:10.617Z,30.700000
2019-03-22T10:51:41.086Z,33.300000
2019-03-22T10:54:11.447Z,33.300000
2019-03-22T10:56:41.946Z,29.600000
2019-03-22T10:59:12.251Z,29.600000
2019-03-22T11:01:52.318Z,31.900000
2019-03-22T11:04:32.962Z,31.900000
2019-03-22T11:07:03.284Z,31.600000
2019-03-22T11:09:33.635Z,31.600000
2019-03-22T11:12:11.853Z,35.900000
2019-03-22T11:14:43.019Z,35.900000
2019-03-22T11:17:13.404Z,30.700000
2019-03-22T11:19:43.951Z,30.700000
2019-03-22T11:22:14.218Z,26.900000
2019-03-22T11:24:44.434Z,26.900000
2019-03-22T11:27:14.766Z,28.800000
2019-03-22T11:29:45.077Z,28.800000
2019-03-22T11:32:15.372Z,31.900000
2019-03-22T11:34:45.716Z,31.900000
2019-03-22T11:37:16.102Z,34.500000
2019-03-22T11:39:51.423Z,34.500000
2019-03-22T11:42:21.684Z,32.700000
2019-03-22T11:44:52.097Z,32.700000
2019-03-22T11:47:22.314Z,27.700000
2019-03-22T11:49:52.628Z,27.700000
2019-03-22T11:52:22.947Z,31.800000
2019-03-22T11:54:53.239Z,31.800000
2019-03-22T11:57:23.540Z,28.200000
2019-03-22T11:59:53.857Z,28.200000
2019-03-22T12:02:24.243Z,25.800000
2019-03-22T12:04:54.614Z,25.800000
2019-03-22T12:07:24.932Z,25.300000
2019-03-22T12:09:55.227Z,25.300000
2019-03-22T12:12:25.524Z,26.000000
2019-03-22T12:14:55.807Z,26.000000
2019-03-22T12:17:26.163Z,34.300000
2019-03-22T12:19:56.591Z,34.300000
2019-03-22T12:22:26.896Z,25.600000
2019-03-22T12:24:57.426Z,25.600000
2019-03-22T12:27:36.226Z,24.000000
2019-03-22T12:30:07.273Z,24.000000
2019-03-22T12:32:37.591Z,26.600000
2019-03-22T12:35:08.009Z,26.600000
2019-03-22T12:37:38.299Z,24.500000
2019-03-22T12:40:08.601Z,24.500000
2019-03-22T12:42:38.892Z,24.900000
2019-03-22T12:45:09.206Z,24.900000
2019-03-22T12:47:39.413Z,20.300000
2019-03-22T12:50:09.777Z,20.300000
2019-03-22T12:52:40.244Z,19.500000
2019-03-22T12:55:10.769Z,19.500000
2019-03-22T12:57:41.254Z,20.000000
2019-03-22T13:00:11.668Z,20.000000
2019-03-22T13:02:42.555Z,21.100000
2019-03-22T13:05:12.881Z,21.100000
2019-03-22T13:07:43.187Z,18.800000
2019-03-22T13:10:13.494Z,18.800000
2019-03-22T13:12:44.008Z,20.500000
2019-03-22T13:15:14.426Z,20.500000
2019-03-22T13:17:44.723Z,23.800000
2019-03-22T13:20:15.042Z,23.800000
2019-03-22T13:22:45.340Z,17.600000
2019-03-22T13:25:15.550Z,17.600000
2019-03-22T13:27:45.853Z,18.700000
2019-03-22T13:30:16.259Z,18.700000
2019-03-22T13:32:52.176Z,19.600000
2019-03-22T13:35:22.795Z,19.600000
2019-03-22T13:37:53.086Z,28.400000
2019-03-22T13:40:23.400Z,28.400000
2019-03-22T13:42:53.818Z,23.000000
2019-03-22T13:45:24.120Z,23.000000
2019-03-22T13:47:54.657Z,19.900000
2019-03-22T13:50:25.052Z,19.900000
2019-03-22T13:52:55.462Z,26.300000
2019-03-22T13:55:25.787Z,26.300000
2019-03-22T13:57:56.117Z,23.500000
2019-03-22T14:00:26.711Z,23.500000
2019-03-22T14:03:02.956Z,19.200000
2019-03-22T14:05:33.807Z,19.200000
2019-03-22T14:08:04.125Z,26.400000
2019-03-22T14:10:34.649Z,26.400000
2019-03-22T14:13:05.080Z,21.700000
2019-03-22T14:15:35.599Z,24.500000
2019-03-22T14:18:05.885Z,24.500000
2019-03-22T14:20:36.331Z,23.700000
2019-03-22T14:23:06.745Z,23.700000
2019-03-22T14:25:37.182Z,20.200000
2019-03-22T14:28:07.498Z,20.200000
2019-03-22T14:30:37.765Z,21.800000
2019-03-22T14:33:13.353Z,21.800000
2019-03-22T14:35:44.167Z,20.500000
2019-03-22T14:38:14.452Z,20.500000
2019-03-22T14:40:44.760Z,21.400000
2019-03-22T14:43:15.122Z,21.400000
2019-03-22T14:45:45.407Z,19.100000
2019-03-22T14:48:15.691Z,19.100000
2019-03-22T14:50:46.004Z,20.500000
2019-03-22T14:53:16.375Z,20.500000
2019-03-22T14:55:46.784Z,21.700000
2019-03-22T14:58:17.206Z,21.700000
2019-03-22T15:00:47.661Z,21.100000
2019-03-22T15:03:22.573Z,21.100000
2019-03-22T15:05:58.125Z,20.700000
2019-03-22T15:08:33.482Z,20.700000
2019-03-22T15:11:03.827Z,23.200000
2019-03-22T15:13:34.110Z,23.200000
2019-03-22T15:16:04.409Z,22.400000
2019-03-22T15:18:34.733Z,22.400000
2019-03-22T15:21:05.231Z,22.000000
2019-03-22T15:23:35.573Z,22.000000
2019-03-22T15:26:05.936Z,21.800000
2019-03-22T15:28:36.393Z,21.800000
2019-03-22T15:31:06.729Z,28.700000
2019-03-22T15:33:37.113Z,28.700000
2019-03-22T15:36:07.513Z,20.700000
2019-03-22T15:38:37.944Z,20.700000
2019-03-22T15:41:08.440Z,22.500000
2019-03-22T15:43:38.736Z,22.500000
2019-03-22T15:46:09.092Z,25.100000
2019-03-22T15:48:39.446Z,25.100000
2019-03-22T15:51:09.793Z,21.300000
2019-03-22T15:53:40.150Z,21.300000
2019-03-22T15:56:10.514Z,22.400000
2019-03-22T15:58:40.981Z,22.400000
2019-03-22T16:01:11.492Z,20.900000
2019-03-22T16:03:44.371Z,20.900000
2019-03-22T16:06:14.995Z,21.600000
2019-03-22T16:08:45.333Z,21.600000
2019-03-22T16:11:15.564Z,23.300000
2019-03-22T16:13:45.951Z,23.300000
2019-03-22T16:16:21.325Z,26.400000
2019-03-22T16:18:56.667Z,26.400000
2019-03-22T16:21:26.959Z,27.600000
2019-03-22T16:23:57.408Z,27.600000
2019-03-22T16:26:27.870Z,24.500000
2019-03-22T16:28:58.222Z,24.500000
2019-03-22T16:31:28.622Z,25.200000
2019-03-22T16:33:58.940Z,25.200000
2019-03-22T16:36:29.263Z,24.000000
2019-03-22T16:38:59.558Z,24.000000
2019-03-22T16:41:29.870Z,25.700000
2019-03-22T16:44:00.212Z,25.700000
2019-03-22T16:46:30.643Z,27.500000
2019-03-22T16:49:00.970Z,27.500000
2019-03-22T16:51:31.333Z,26.000000
2019-03-22T16:54:01.712Z,26.000000
2019-03-22T16:56:32.191Z,25.400000
2019-03-22T16:59:02.473Z,25.400000
2019-03-22T17:01:32.859Z,25.500000
2019-03-22T17:04:04.641Z,25.500000
2019-03-22T17:06:35.140Z,27.100000
2019-03-22T17:09:05.407Z,27.100000
2019-03-22T17:11:35.786Z,27.800000
2019-03-22T17:14:06.154Z,27.800000
2019-03-22T17:16:36.431Z,28.600000
2019-03-22T17:19:06.817Z,28.600000
2019-03-22T17:21:37.139Z,25.600000
2019-03-22T17:24:12.425Z,25.600000
2019-03-22T17:26:42.723Z,26.900000
2019-03-22T17:29:13.064Z,26.900000
2019-03-22T17:31:43.431Z,26.100000
2019-03-22T17:34:14.552Z,26.100000
2019-03-22T17:36:44.953Z,25.500000
2019-03-22T17:39:17.337Z,25.500000
2019-03-22T17:41:47.809Z,25.500000
2019-03-22T17:44:23.227Z,25.500000
2019-03-22T17:46:53.648Z,25.200000
2019-03-22T17:49:24.112Z,25.200000
2019-03-22T17:51:59.410Z,26.400000
2019-03-22T17:54:29.816Z,26.400000
2019-03-22T17:57:00.299Z,27.300000
2019-03-22T17:59:30.642Z,27.300000
2019-03-22T18:02:00.988Z,27.400000
2019-03-22T18:04:31.651Z,27.400000
2019-03-22T18:07:01.868Z,26.900000
2019-03-22T18:09:37.249Z,26.900000
2019-03-22T18:12:07.500Z,24.900000
2019-03-22T18:14:37.952Z,24.900000
2019-03-22T18:17:08.311Z,24.600000
2019-03-22T18:19:38.687Z,24.600000
2019-03-22T18:22:09.060Z,22.600000
2019-03-22T18:24:39.547Z,22.600000
2019-03-22T18:27:09.873Z,23.300000
2019-03-22T18:29:40.119Z,23.300000
2019-03-22T18:32:10.438Z,24.300000
2019-03-22T18:34:40.842Z,24.300000
2019-03-22T18:37:11.150Z,23.000000
2019-03-22T18:39:41.604Z,23.000000
2019-03-22T18:42:11.905Z,26.200000
2019-03-22T18:44:42.319Z,25.900000
2019-03-22T18:47:12.632Z,25.900000
2019-03-22T18:49:42.933Z,23.300000
2019-03-22T18:52:13.234Z,23.300000
2019-03-22T18:54:43.557Z,20.500000
2019-03-22T18:57:19.016Z,20.500000
2019-03-22T18:59:49.332Z,19.300000
2019-03-22T19:02:19.734Z,19.300000
2019-03-22T19:04:50.018Z,16.400000
2019-03-22T19:07:20.430Z,16.400000
2019-03-22T19:09:50.763Z,19.100000
2019-03-22T19:12:26.134Z,19.100000
2019-03-22T19:14:56.456Z,19.500000
2019-03-22T19:17:26.749Z,19.500000
2019-03-22T19:19:57.105Z,19.700000
2019-03-22T19:22:27.592Z,19.700000
2019-03-22T19:24:57.958Z,18.200000
2019-03-22T19:27:28.252Z,18.200000
2019-03-22T19:29:58.584Z,19.000000
2019-03-22T19:32:28.892Z,19.000000
2019-03-22T19:34:59.312Z,22.800000
2019-03-22T19:37:29.675Z,22.800000
2019-03-22T19:40:00.046Z,21.300000
2019-03-22T19:42:30.443Z,21.300000
2019-03-22T19:45:00.765Z,21.300000
2019-03-22T19:47:31.102Z,21.300000
2019-03-22T19:50:01.473Z,21.600000
2019-03-22T19:52:31.870Z,21.600000
2019-03-22T19:55:02.363Z,20.500000
2019-03-22T19:57:32.803Z,20.500000
2019-03-22T20:00:03.085Z,22.000000
2019-03-22T20:02:33.544Z,22.000000
2019-03-22T20:05:04.905Z,22.100000
2019-03-22T20:07:35.629Z,22.100000
2019-03-22T20:10:05.922Z,22.300000
2019-03-22T20:12:36.276Z,22.300000
2019-03-22T20:15:06.638Z,18.800000
2019-03-22T20:17:36.927Z,18.800000
2019-03-22T20:20:07.289Z,21.500000
2019-03-22T20:22:37.690Z,21.500000
2019-03-22T20:25:08.247Z,20.200000
2019-03-22T20:27:38.515Z,20.200000
2019-03-22T20:30:08.833Z,20.100000
2019-03-22T20:32:39.170Z,20.100000
2019-03-22T20:35:16.224Z,21.900000
2019-03-22T20:37:47.460Z,21.900000
2019-03-22T20:40:17.775Z,14.300000
2019-03-22T20:42:48.183Z,14.300000
2019-03-22T20:45:24.217Z,18.000000
2019-03-22T20:47:54.906Z,18.000000
2019-03-22T20:50:35.166Z,20.200000
2019-03-22T20:53:06.480Z,20.200000
2019-03-22T20:55:36.815Z,22.000000
2019-03-22T20:58:07.167Z,22.000000
2019-03-22T21:00:37.423Z,26.500000
2019-03-22T21:03:07.858Z,26.500000
2019-03-22T21:05:38.200Z,19.300000
2019-03-22T21:08:08.631Z,19.300000
2019-03-22T21:10:39.056Z,27.700000
2019-03-22T21:13:09.586Z,27.700000
2019-03-22T21:15:40.105Z,25.100000
2019-03-22T21:18:10.472Z,25.100000
2019-03-22T21:20:40.823Z,30.000000
2019-03-22T21:23:11.056Z,30.000000
2019-03-22T21:25:41.392Z,34.000000
2019-03-22T21:28:11.824Z,34.000000
2019-03-22T21:30:42.187Z,28.700000
2019-03-22T21:33:12.503Z,28.700000
2019-03-22T21:35:42.831Z,26.700000
2019-03-22T21:38:15.593Z,26.700000
2019-03-22T21:40:46.102Z,30.300000
2019-03-22T21:43:22.114Z,30.300000
2019-03-22T21:45:52.526Z,27.400000
2019-03-22T21:48:22.929Z,27.400000
2019-03-22T21:50:53.261Z,27.000000
2019-03-22T21:53:23.506Z,27.000000
2019-03-22T21:55:54.381Z,27.300000
2019-03-22T21:58:24.700Z,27.300000
2019-03-22T22:00:55.057Z,23.900000
2019-03-22T22:03:25.294Z,23.900000
2019-03-22T22:05:55.652Z,26.900000
2019-03-22T22:08:25.878Z,26.900000
2019-03-22T22:11:00.012Z,18.700000
2019-03-22T22:13:30.678Z,18.700000
2019-03-22T22:16:00.984Z,25.200000
2019-03-22T22:18:31.385Z,25.200000
2019-03-22T22:21:01.774Z,27.400000
2019-03-22T22:23:32.129Z,27.400000
2019-03-22T22:26:02.522Z,26.400000
2019-03-22T22:28:32.848Z,26.400000
2019-03-22T22:31:03.408Z,25.100000
2019-03-22T22:33:33.719Z,25.100000
2019-03-22T22:36:03.936Z,27.600000
2019-03-22T22:38:34.347Z,27.600000
2019-03-22T22:41:04.717Z,26.100000
2019-03-22T22:43:35.011Z,26.100000
2019-03-22T22:46:05.254Z,27.400000
2019-03-22T22:48:35.539Z,27.400000
2019-03-22T22:51:05.857Z,23.900000
2019-03-22T22:53:36.097Z,23.900000
2019-03-22T22:56:06.361Z,25.400000
2019-03-22T22:58:36.773Z,25.400000
2019-03-22T23:01:07.121Z,23.300000
2019-03-22T23:03:37.481Z,19.900000
2019-03-22T23:06:09.607Z,19.900000
2019-03-22T23:08:40.226Z,24.700000
2019-03-22T23:11:10.467Z,24.700000
2019-03-22T23:13:40.808Z,21.000000
2019-03-22T23:16:11.199Z,21.000000
2019-03-22T23:18:41.577Z,24.700000
2019-03-22T23:21:16.857Z,24.700000
2019-03-22T23:23:47.265Z,21.600000
2019-03-22T23:26:19.629Z,21.600000
2019-03-22T23:28:50.021Z,24.300000
2019-03-22T23:31:20.331Z,24.300000
2019-03-22T23:33:50.691Z,25.700000
2019-03-22T23:36:21.110Z,25.700000
2019-03-22T23:38:51.468Z,23.100000
2019-03-22T23:41:21.791Z,23.100000
2019-03-22T23:43:52.095Z,25.300000
2019-03-22T23:46:22.532Z,25.300000
2019-03-22T23:48:52.770Z,21.300000
2019-03-22T23:51:23.202Z,21.300000
2019-03-22T23:53:53.637Z,23.700000
2019-03-22T23:56:24.071Z,23.700000
2019-03-22T23:58:54.462Z,22.300000
